sensor_id;sensor_type;location;lat;lon;timestamp;P1;durP1;ratioP1;P2;durP2;ratioP2
6757;SDS011;3416;53.074;8.822;2022-12-18T00:01:46;49.70;;;30.05;;
6757;SDS011;3416;53.074;8.822;2022-12-18T00:04:15;40.75;;;27.95;;
6757;SDS011;3416;53.074;8.822;2022-12-18T00:06:46;45.42;;;27.83;;
6757;SDS011;3416;53.074;8.822;2022-12-18T00:09:12;45.03;;;30.63;;
6757;SDS011;3416;53.074;8.822;2022-12-18T00:11:42;49.03;;;29.98;;
6757;SDS011;3416;53.074;8.822;2022-12-18T00:14:09;50.25;;;27.90;;
6757;SDS011;3416;53.074;8.822;2022-12-18T00:16:39;43.38;;;30.20;;
6757;SDS011;3416;53.074;8.822;2022-12-18T00:19:06;53.53;;;30.92;;
6757;SDS011;3416;53.074;8.822;2022-12-18T00:21:34;42.53;;;27.88;;
6757;SDS011;3416;53.074;8.822;2022-12-18T00:24:01;47.97;;;30.52;;
6757;SDS011;3416;53.074;8.822;2022-12-18T00:26:30;46.67;;;29.65;;
6757;SDS011;3416;53.074;8.822;2022-12-18T00:29:00;53.15;;;31.33;;
6757;SDS011;3416;53.074;8.822;2022-12-18T00:31:28;46.50;;;32.05;;
6757;SDS011;3416;53.074;8.822;2022-12-18T00:33:55;49.30;;;28.95;;
6757;SDS011;3416;53.074;8.822;2022-12-18T00:36:24;50.10;;;28.75;;
6757;SDS011;3416;53.074;8.822;2022-12-18T00:38:56;43.80;;;27.50;;
6757;SDS011;3416;53.074;8.822;2022-12-18T00:41:26;51.88;;;31.85;;
6757;SDS011;3416;53.074;8.822;2022-12-18T00:44:15;46.63;;;27.92;;
6757;SDS011;3416;53.074;8.822;2022-12-18T00:46:43;55.70;;;31.60;;
6757;SDS011;3416;53.074;8.822;2022-12-18T00:49:12;42.28;;;29.98;;
6757;SDS011;3416;53.074;8.822;2022-12-18T00:51:40;52.25;;;31.33;;
6757;SDS011;3416;53.074;8.822;2022-12-18T00:54:07;49.40;;;31.67;;
6757;SDS011;3416;53.074;8.822;2022-12-18T00:56:35;42.50;;;28.13;;
6757;SDS011;3416;53.074;8.822;2022-12-18T00:59:03;42.97;;;28.65;;
6757;SDS011;3416;53.074;8.822;2022-12-18T01:01:32;49.35;;;29.45;;
6757;SDS011;3416;53.074;8.822;2022-12-18T01:03:59;43.63;;;28.00;;
6757;SDS011;3416;53.074;8.822;2022-12-18T01:06:27;52.30;;;30.88;;
6757;SDS011;3416;53.074;8.822;2022-12-18T01:08:54;48.13;;;29.27;;
6757;SDS011;3416;53.074;8.822;2022-12-18T01:11:21;55.35;;;29.75;;
6757;SDS011;3416;53.074;8.822;2022-12-18T01:13:48;45.40;;;29.75;;
6757;SDS011;3416;53.074;8.822;2022-12-18T01:16:16;47.83;;;30.17;;
6757;SDS011;3416;53.074;8.822;2022-12-18T01:18:45;47.45;;;27.50;;
6757;SDS011;3416;53.074;8.822;2022-12-18T01:21:13;45.38;;;29.13;;
6757;SDS011;3416;53.074;8.822;2022-12-18T01:23:41;52.65;;;27.67;;
6757;SDS011;3416;53.074;8.822;2022-12-18T01:26:10;45.22;;;29.92;;
6757;SDS011;3416;53.074;8.822;2022-12-18T01:28:39;44.58;;;28.77;;
6757;SDS011;3416;53.074;8.822;2022-12-18T01:31:13;45.78;;;29.58;;
6757;SDS011;3416;53.074;8.822;2022-12-18T01:33:42;39.28;;;26.48;;
6757;SDS011;3416;53.074;8.822;2022-12-18T01:36:15;49.40;;;28.40;;
6757;SDS011;3416;53.074;8.822;2022-12-18T01:38:44;45.03;;;27.08;;
6757;SDS011;3416;53.074;8.822;2022-12-18T01:41:11;36.03;;;24.20;;
6757;SDS011;3416;53.074;8.822;2022-12-18T01:43:50;44.72;;;26.35;;
6757;SDS011;3416;53.074;8.822;2022-12-18T01:46:19;45.58;;;27.52;;
6757;SDS011;3416;53.074;8.822;2022-12-18T01:48:57;39.95;;;26.60;;
6757;SDS011;3416;53.074;8.822;2022-12-18T01:51:27;43.35;;;27.00;;
6757;SDS011;3416;53.074;8.822;2022-12-18T01:53:56;36.50;;;24.42;;
6757;SDS011;3416;53.074;8.822;2022-12-18T01:56:25;41.47;;;25.42;;
6757;SDS011;3416;53.074;8.822;2022-12-18T01:58:54;39.60;;;25.50;;
6757;SDS011;3416;53.074;8.822;2022-12-18T02:01:25;40.13;;;28.55;;
6757;SDS011;3416;53.074;8.822;2022-12-18T02:03:52;41.08;;;25.52;;
6757;SDS011;3416;53.074;8.822;2022-12-18T02:06:20;42.38;;;26.25;;
6757;SDS011;3416;53.074;8.822;2022-12-18T02:08:57;42.05;;;25.33;;
6757;SDS011;3416;53.074;8.822;2022-12-18T02:11:32;43.10;;;24.98;;
6757;SDS011;3416;53.074;8.822;2022-12-18T02:14:11;37.53;;;22.98;;
6757;SDS011;3416;53.074;8.822;2022-12-18T02:16:51;38.13;;;24.33;;
6757;SDS011;3416;53.074;8.822;2022-12-18T02:19:44;37.97;;;25.05;;
6757;SDS011;3416;53.074;8.822;2022-12-18T02:22:25;38.30;;;24.42;;
6757;SDS011;3416;53.074;8.822;2022-12-18T02:25:05;43.55;;;25.23;;
6757;SDS011;3416;53.074;8.822;2022-12-18T02:27:45;34.63;;;23.40;;
6757;SDS011;3416;53.074;8.822;2022-12-18T02:30:16;42.58;;;22.58;;
6757;SDS011;3416;53.074;8.822;2022-12-18T02:32:45;29.98;;;22.27;;
6757;SDS011;3416;53.074;8.822;2022-12-18T02:35:20;33.17;;;23.42;;
6757;SDS011;3416;53.074;8.822;2022-12-18T02:37:53;48.10;;;25.23;;
6757;SDS011;3416;53.074;8.822;2022-12-18T02:40:22;38.28;;;24.25;;
6757;SDS011;3416;53.074;8.822;2022-12-18T02:42:53;43.28;;;23.95;;
6757;SDS011;3416;53.074;8.822;2022-12-18T02:45:20;44.85;;;22.05;;
6757;SDS011;3416;53.074;8.822;2022-12-18T02:47:48;30.10;;;21.90;;
6757;SDS011;3416;53.074;8.822;2022-12-18T02:50:18;35.53;;;24.15;;
6757;SDS011;3416;53.074;8.822;2022-12-18T02:52:51;31.48;;;21.55;;
6757;SDS011;3416;53.074;8.822;2022-12-18T02:55:29;34.70;;;20.85;;
6757;SDS011;3416;53.074;8.822;2022-12-18T02:58:12;27.35;;;19.77;;
6757;SDS011;3416;53.074;8.822;2022-12-18T03:00:44;32.83;;;21.20;;
6757;SDS011;3416;53.074;8.822;2022-12-18T03:03:16;36.22;;;21.88;;
6757;SDS011;3416;53.074;8.822;2022-12-18T03:05:50;30.25;;;20.15;;
6757;SDS011;3416;53.074;8.822;2022-12-18T03:08:22;29.92;;;19.50;;
6757;SDS011;3416;53.074;8.822;2022-12-18T03:10:51;31.58;;;19.48;;
6757;SDS011;3416;53.074;8.822;2022-12-18T03:13:26;28.13;;;19.73;;
6757;SDS011;3416;53.074;8.822;2022-12-18T03:15:57;25.27;;;17.60;;
6757;SDS011;3416;53.074;8.822;2022-12-18T03:18:29;36.15;;;21.17;;
6757;SDS011;3416;53.074;8.822;2022-12-18T03:21:00;27.88;;;16.88;;
6757;SDS011;3416;53.074;8.822;2022-12-18T03:23:32;30.45;;;18.58;;
6757;SDS011;3416;53.074;8.822;2022-12-18T03:26:03;28.08;;;18.80;;
6757;SDS011;3416;53.074;8.822;2022-12-18T03:28:35;39.00;;;20.45;;
6757;SDS011;3416;53.074;8.822;2022-12-18T03:31:05;31.33;;;18.17;;
6757;SDS011;3416;53.074;8.822;2022-12-18T03:33:37;39.17;;;19.65;;
6757;SDS011;3416;53.074;8.822;2022-12-18T03:36:06;34.78;;;20.75;;
6757;SDS011;3416;53.074;8.822;2022-12-18T03:38:34;26.50;;;16.75;;
6757;SDS011;3416;53.074;8.822;2022-12-18T03:41:02;24.77;;;16.90;;
6757;SDS011;3416;53.074;8.822;2022-12-18T03:43:37;26.60;;;18.65;;
6757;SDS011;3416;53.074;8.822;2022-12-18T03:46:11;26.42;;;17.75;;
6757;SDS011;3416;53.074;8.822;2022-12-18T03:48:43;32.10;;;17.70;;
6757;SDS011;3416;53.074;8.822;2022-12-18T03:51:15;34.55;;;18.10;;
6757;SDS011;3416;53.074;8.822;2022-12-18T03:53:51;26.23;;;17.30;;
6757;SDS011;3416;53.074;8.822;2022-12-18T03:56:22;24.15;;;16.15;;
6757;SDS011;3416;53.074;8.822;2022-12-18T03:58:53;27.67;;;16.48;;
6757;SDS011;3416;53.074;8.822;2022-12-18T04:01:22;27.42;;;18.15;;
6757;SDS011;3416;53.074;8.822;2022-12-18T04:03:54;25.88;;;15.73;;
6757;SDS011;3416;53.074;8.822;2022-12-18T04:06:25;28.67;;;17.52;;
6757;SDS011;3416;53.074;8.822;2022-12-18T04:08:52;27.35;;;16.60;;
6757;SDS011;3416;53.074;8.822;2022-12-18T04:11:19;25.27;;;16.38;;
6757;SDS011;3416;53.074;8.822;2022-12-18T04:13:46;26.52;;;16.10;;
6757;SDS011;3416;53.074;8.822;2022-12-18T04:16:14;33.83;;;17.05;;
6757;SDS011;3416;53.074;8.822;2022-12-18T04:18:41;24.13;;;16.70;;
6757;SDS011;3416;53.074;8.822;2022-12-18T04:21:08;21.15;;;15.13;;
6757;SDS011;3416;53.074;8.822;2022-12-18T04:23:36;24.10;;;16.98;;
6757;SDS011;3416;53.074;8.822;2022-12-18T04:26:02;20.92;;;15.35;;
6757;SDS011;3416;53.074;8.822;2022-12-18T04:28:29;25.40;;;16.15;;
6757;SDS011;3416;53.074;8.822;2022-12-18T04:30:56;27.45;;;16.80;;
6757;SDS011;3416;53.074;8.822;2022-12-18T04:33:24;22.15;;;16.08;;
6757;SDS011;3416;53.074;8.822;2022-12-18T04:35:52;22.08;;;14.68;;
6757;SDS011;3416;53.074;8.822;2022-12-18T04:38:18;28.75;;;15.77;;
6757;SDS011;3416;53.074;8.822;2022-12-18T04:40:45;20.50;;;14.85;;
6757;SDS011;3416;53.074;8.822;2022-12-18T04:43:12;23.25;;;13.55;;
6757;SDS011;3416;53.074;8.822;2022-12-18T04:45:39;25.42;;;16.30;;
6757;SDS011;3416;53.074;8.822;2022-12-18T04:48:06;24.90;;;16.70;;
6757;SDS011;3416;53.074;8.822;2022-12-18T04:50:34;20.83;;;15.45;;
6757;SDS011;3416;53.074;8.822;2022-12-18T04:53:01;25.00;;;14.02;;
6757;SDS011;3416;53.074;8.822;2022-12-18T04:55:28;19.73;;;15.80;;
6757;SDS011;3416;53.074;8.822;2022-12-18T04:57:55;23.35;;;16.48;;
6757;SDS011;3416;53.074;8.822;2022-12-18T05:00:22;19.48;;;13.48;;
6757;SDS011;3416;53.074;8.822;2022-12-18T05:02:49;23.70;;;13.55;;
6757;SDS011;3416;53.074;8.822;2022-12-18T05:05:16;23.10;;;13.85;;
6757;SDS011;3416;53.074;8.822;2022-12-18T05:07:44;28.92;;;14.23;;
6757;SDS011;3416;53.074;8.822;2022-12-18T05:10:11;30.70;;;16.27;;
6757;SDS011;3416;53.074;8.822;2022-12-18T05:12:38;24.40;;;14.98;;
6757;SDS011;3416;53.074;8.822;2022-12-18T05:15:23;22.90;;;14.32;;
6757;SDS011;3416;53.074;8.822;2022-12-18T05:17:50;21.92;;;14.68;;
6757;SDS011;3416;53.074;8.822;2022-12-18T05:20:17;24.67;;;13.95;;
6757;SDS011;3416;53.074;8.822;2022-12-18T05:22:45;21.05;;;13.68;;
6757;SDS011;3416;53.074;8.822;2022-12-18T05:25:12;26.73;;;14.27;;
6757;SDS011;3416;53.074;8.822;2022-12-18T05:27:40;20.50;;;13.98;;
6757;SDS011;3416;53.074;8.822;2022-12-18T05:30:07;23.58;;;13.45;;
6757;SDS011;3416;53.074;8.822;2022-12-18T05:32:36;21.48;;;14.57;;
6757;SDS011;3416;53.074;8.822;2022-12-18T05:35:03;27.25;;;13.27;;
6757;SDS011;3416;53.074;8.822;2022-12-18T05:37:32;19.25;;;13.57;;
6757;SDS011;3416;53.074;8.822;2022-12-18T05:40:00;23.92;;;13.82;;
6757;SDS011;3416;53.074;8.822;2022-12-18T05:42:27;27.58;;;13.75;;
6757;SDS011;3416;53.074;8.822;2022-12-18T05:44:54;16.67;;;11.43;;
6757;SDS011;3416;53.074;8.822;2022-12-18T05:47:21;28.95;;;15.15;;
6757;SDS011;3416;53.074;8.822;2022-12-18T05:49:48;20.00;;;12.18;;
6757;SDS011;3416;53.074;8.822;2022-12-18T05:52:14;20.85;;;13.20;;
6757;SDS011;3416;53.074;8.822;2022-12-18T05:54:41;26.52;;;14.98;;
6757;SDS011;3416;53.074;8.822;2022-12-18T05:57:10;21.00;;;14.73;;
6757;SDS011;3416;53.074;8.822;2022-12-18T05:59:36;18.13;;;12.82;;
6757;SDS011;3416;53.074;8.822;2022-12-18T06:02:03;26.25;;;15.77;;
6757;SDS011;3416;53.074;8.822;2022-12-18T06:04:30;20.75;;;12.38;;
6757;SDS011;3416;53.074;8.822;2022-12-18T06:06:57;20.70;;;13.55;;
6757;SDS011;3416;53.074;8.822;2022-12-18T06:09:24;23.20;;;12.52;;
6757;SDS011;3416;53.074;8.822;2022-12-18T06:11:51;22.70;;;14.93;;
6757;SDS011;3416;53.074;8.822;2022-12-18T06:14:20;26.23;;;15.93;;
6757;SDS011;3416;53.074;8.822;2022-12-18T06:16:46;25.88;;;14.90;;
6757;SDS011;3416;53.074;8.822;2022-12-18T06:19:14;24.50;;;15.45;;
6757;SDS011;3416;53.074;8.822;2022-12-18T06:21:41;21.38;;;13.10;;
6757;SDS011;3416;53.074;8.822;2022-12-18T06:24:08;21.15;;;12.25;;
6757;SDS011;3416;53.074;8.822;2022-12-18T06:26:36;21.10;;;13.32;;
6757;SDS011;3416;53.074;8.822;2022-12-18T06:29:03;14.20;;;10.98;;
6757;SDS011;3416;53.074;8.822;2022-12-18T06:31:32;20.15;;;12.20;;
6757;SDS011;3416;53.074;8.822;2022-12-18T06:33:59;18.45;;;12.13;;
6757;SDS011;3416;53.074;8.822;2022-12-18T06:36:28;20.60;;;11.90;;
6757;SDS011;3416;53.074;8.822;2022-12-18T06:38:55;25.90;;;12.35;;
6757;SDS011;3416;53.074;8.822;2022-12-18T06:41:23;19.73;;;14.82;;
6757;SDS011;3416;53.074;8.822;2022-12-18T06:43:50;21.55;;;15.20;;
6757;SDS011;3416;53.074;8.822;2022-12-18T06:46:17;20.63;;;13.35;;
6757;SDS011;3416;53.074;8.822;2022-12-18T06:48:47;19.85;;;12.52;;
6757;SDS011;3416;53.074;8.822;2022-12-18T06:51:15;22.50;;;11.93;;
6757;SDS011;3416;53.074;8.822;2022-12-18T06:53:43;19.63;;;13.27;;
6757;SDS011;3416;53.074;8.822;2022-12-18T06:56:10;20.55;;;11.35;;
6757;SDS011;3416;53.074;8.822;2022-12-18T06:58:37;26.75;;;13.95;;
6757;SDS011;3416;53.074;8.822;2022-12-18T07:01:04;18.58;;;13.10;;
6757;SDS011;3416;53.074;8.822;2022-12-18T07:03:32;17.83;;;12.65;;
6757;SDS011;3416;53.074;8.822;2022-12-18T07:06:01;22.90;;;14.45;;
6757;SDS011;3416;53.074;8.822;2022-12-18T07:08:28;19.23;;;14.30;;
6757;SDS011;3416;53.074;8.822;2022-12-18T07:10:55;19.40;;;11.88;;
6757;SDS011;3416;53.074;8.822;2022-12-18T07:13:22;23.55;;;13.70;;
6757;SDS011;3416;53.074;8.822;2022-12-18T07:15:49;20.55;;;12.55;;
6757;SDS011;3416;53.074;8.822;2022-12-18T07:18:16;17.20;;;13.25;;
6757;SDS011;3416;53.074;8.822;2022-12-18T07:20:42;18.67;;;12.80;;
6757;SDS011;3416;53.074;8.822;2022-12-18T07:23:11;19.77;;;12.40;;
6757;SDS011;3416;53.074;8.822;2022-12-18T07:25:38;18.33;;;12.18;;
6757;SDS011;3416;53.074;8.822;2022-12-18T07:28:04;17.38;;;11.32;;
6757;SDS011;3416;53.074;8.822;2022-12-18T07:30:31;17.33;;;12.88;;
6757;SDS011;3416;53.074;8.822;2022-12-18T07:32:58;23.25;;;13.25;;
6757;SDS011;3416;53.074;8.822;2022-12-18T07:35:25;19.77;;;13.07;;
6757;SDS011;3416;53.074;8.822;2022-12-18T07:37:52;21.10;;;13.48;;
6757;SDS011;3416;53.074;8.822;2022-12-18T07:40:20;26.38;;;13.75;;
6757;SDS011;3416;53.074;8.822;2022-12-18T07:42:47;28.75;;;14.55;;
6757;SDS011;3416;53.074;8.822;2022-12-18T07:45:14;17.50;;;12.57;;
6757;SDS011;3416;53.074;8.822;2022-12-18T07:47:41;24.52;;;13.10;;
6757;SDS011;3416;53.074;8.822;2022-12-18T07:50:08;18.77;;;13.13;;
6757;SDS011;3416;53.074;8.822;2022-12-18T07:52:35;20.48;;;13.95;;
6757;SDS011;3416;53.074;8.822;2022-12-18T07:55:02;22.00;;;14.77;;
6757;SDS011;3416;53.074;8.822;2022-12-18T07:57:31;17.20;;;13.07;;
6757;SDS011;3416;53.074;8.822;2022-12-18T07:59:59;20.60;;;12.75;;
6757;SDS011;3416;53.074;8.822;2022-12-18T08:02:32;18.23;;;11.75;;
6757;SDS011;3416;53.074;8.822;2022-12-18T08:05:01;21.90;;;13.00;;
6757;SDS011;3416;53.074;8.822;2022-12-18T08:07:28;22.80;;;13.45;;
6757;SDS011;3416;53.074;8.822;2022-12-18T08:09:55;26.08;;;13.40;;
6757;SDS011;3416;53.074;8.822;2022-12-18T08:12:22;16.88;;;11.57;;
6757;SDS011;3416;53.074;8.822;2022-12-18T08:14:50;23.25;;;13.00;;
6757;SDS011;3416;53.074;8.822;2022-12-18T08:17:19;16.90;;;12.48;;
6757;SDS011;3416;53.074;8.822;2022-12-18T08:19:46;21.42;;;12.88;;
6757;SDS011;3416;53.074;8.822;2022-12-18T08:22:13;20.48;;;13.68;;
6757;SDS011;3416;53.074;8.822;2022-12-18T08:24:40;20.55;;;14.60;;
6757;SDS011;3416;53.074;8.822;2022-12-18T08:27:09;18.13;;;12.05;;
6757;SDS011;3416;53.074;8.822;2022-12-18T08:29:36;19.10;;;11.88;;
6757;SDS011;3416;53.074;8.822;2022-12-18T08:32:05;20.65;;;12.65;;
6757;SDS011;3416;53.074;8.822;2022-12-18T08:34:32;19.92;;;11.60;;
6757;SDS011;3416;53.074;8.822;2022-12-18T08:36:59;16.70;;;10.27;;
6757;SDS011;3416;53.074;8.822;2022-12-18T08:39:29;16.70;;;11.95;;
6757;SDS011;3416;53.074;8.822;2022-12-18T08:41:56;17.65;;;13.57;;
6757;SDS011;3416;53.074;8.822;2022-12-18T08:53:47;12.50;;;10.20;;
6757;SDS011;3416;53.074;8.822;2022-12-18T08:56:15;15.55;;;10.45;;
6757;SDS011;3416;53.074;8.822;2022-12-18T08:58:42;13.07;;;10.25;;
6757;SDS011;3416;53.074;8.822;2022-12-18T09:01:10;15.75;;;10.65;;
6757;SDS011;3416;53.074;8.822;2022-12-18T09:03:38;17.67;;;11.55;;
6757;SDS011;3416;53.074;8.822;2022-12-18T09:06:06;12.73;;;10.23;;
6757;SDS011;3416;53.074;8.822;2022-12-18T09:08:35;16.58;;;9.90;;
6757;SDS011;3416;53.074;8.822;2022-12-18T09:11:02;12.68;;;9.38;;
6757;SDS011;3416;53.074;8.822;2022-12-18T09:13:29;13.55;;;9.13;;
6757;SDS011;3416;53.074;8.822;2022-12-18T09:15:56;13.38;;;10.50;;
6757;SDS011;3416;53.074;8.822;2022-12-18T09:18:23;13.70;;;11.07;;
6757;SDS011;3416;53.074;8.822;2022-12-18T09:20:54;15.10;;;10.05;;
6757;SDS011;3416;53.074;8.822;2022-12-18T09:23:22;17.17;;;11.82;;
6757;SDS011;3416;53.074;8.822;2022-12-18T09:29:20;17.25;;;11.95;;
6757;SDS011;3416;53.074;8.822;2022-12-18T09:31:52;14.00;;;10.70;;
6757;SDS011;3416;53.074;8.822;2022-12-18T09:34:21;14.90;;;10.75;;
6757;SDS011;3416;53.074;8.822;2022-12-18T09:36:48;17.20;;;11.00;;
6757;SDS011;3416;53.074;8.822;2022-12-18T09:39:16;16.65;;;10.05;;
6757;SDS011;3416;53.074;8.822;2022-12-18T09:41:45;15.15;;;10.73;;
6757;SDS011;3416;53.074;8.822;2022-12-18T09:44:22;17.40;;;12.98;;
6757;SDS011;3416;53.074;8.822;2022-12-18T09:46:58;18.40;;;12.57;;
6757;SDS011;3416;53.074;8.822;2022-12-18T09:49:32;12.05;;;10.60;;
6757;SDS011;3416;53.074;8.822;2022-12-18T09:52:04;12.18;;;10.40;;
6757;SDS011;3416;53.074;8.822;2022-12-18T09:54:38;16.02;;;11.35;;
6757;SDS011;3416;53.074;8.822;2022-12-18T09:57:16;18.95;;;11.90;;
6757;SDS011;3416;53.074;8.822;2022-12-18T09:59:46;31.42;;;14.10;;
6757;SDS011;3416;53.074;8.822;2022-12-18T10:02:18;16.63;;;11.40;;
6757;SDS011;3416;53.074;8.822;2022-12-18T10:04:49;17.88;;;11.77;;
6757;SDS011;3416;53.074;8.822;2022-12-18T10:07:34;19.60;;;11.02;;
6757;SDS011;3416;53.074;8.822;2022-12-18T10:10:19;18.77;;;11.13;;
6757;SDS011;3416;53.074;8.822;2022-12-18T10:13:03;22.30;;;12.82;;
6757;SDS011;3416;53.074;8.822;2022-12-18T10:15:36;16.80;;;11.27;;
6757;SDS011;3416;53.074;8.822;2022-12-18T10:18:14;21.48;;;12.20;;
6757;SDS011;3416;53.074;8.822;2022-12-18T10:20:52;17.58;;;11.77;;
6757;SDS011;3416;53.074;8.822;2022-12-18T10:23:21;13.63;;;11.40;;
6757;SDS011;3416;53.074;8.822;2022-12-18T10:25:53;18.45;;;11.45;;
6757;SDS011;3416;53.074;8.822;2022-12-18T10:28:26;16.70;;;13.70;;
6757;SDS011;3416;53.074;8.822;2022-12-18T10:30:56;19.88;;;13.10;;
6757;SDS011;3416;53.074;8.822;2022-12-18T10:33:27;18.85;;;11.15;;
6757;SDS011;3416;53.074;8.822;2022-12-18T10:35:56;19.65;;;12.82;;
6757;SDS011;3416;53.074;8.822;2022-12-18T10:38:24;20.70;;;12.73;;
6757;SDS011;3416;53.074;8.822;2022-12-18T10:40:52;15.60;;;11.32;;
6757;SDS011;3416;53.074;8.822;2022-12-18T10:43:22;20.38;;;11.25;;
6757;SDS011;3416;53.074;8.822;2022-12-18T10:46:00;16.33;;;11.35;;
6757;SDS011;3416;53.074;8.822;2022-12-18T10:48:31;19.58;;;12.82;;
6757;SDS011;3416;53.074;8.822;2022-12-18T10:51:00;18.42;;;14.23;;
6757;SDS011;3416;53.074;8.822;2022-12-18T10:53:27;19.08;;;12.43;;
6757;SDS011;3416;53.074;8.822;2022-12-18T10:55:57;18.17;;;12.23;;
6757;SDS011;3416;53.074;8.822;2022-12-18T10:58:26;20.88;;;12.93;;
6757;SDS011;3416;53.074;8.822;2022-12-18T11:01:05;23.75;;;11.50;;
6757;SDS011;3416;53.074;8.822;2022-12-18T11:03:35;17.88;;;11.00;;
6757;SDS011;3416;53.074;8.822;2022-12-18T11:06:08;15.90;;;10.82;;
6757;SDS011;3416;53.074;8.822;2022-12-18T11:08:36;17.00;;;11.50;;
6757;SDS011;3416;53.074;8.822;2022-12-18T11:11:07;15.10;;;12.75;;
6757;SDS011;3416;53.074;8.822;2022-12-18T11:13:48;16.67;;;10.95;;
6757;SDS011;3416;53.074;8.822;2022-12-18T11:16:25;16.83;;;12.52;;
6757;SDS011;3416;53.074;8.822;2022-12-18T11:18:53;16.27;;;11.00;;
6757;SDS011;3416;53.074;8.822;2022-12-18T11:21:26;23.10;;;12.13;;
6757;SDS011;3416;53.074;8.822;2022-12-18T11:23:54;16.10;;;10.95;;
6757;SDS011;3416;53.074;8.822;2022-12-18T11:26:21;17.90;;;10.90;;
6757;SDS011;3416;53.074;8.822;2022-12-18T11:29:07;15.98;;;10.35;;
6757;SDS011;3416;53.074;8.822;2022-12-18T11:31:37;21.48;;;10.70;;
6757;SDS011;3416;53.074;8.822;2022-12-18T11:34:07;22.08;;;11.18;;
6757;SDS011;3416;53.074;8.822;2022-12-18T11:36:38;15.88;;;10.55;;
6757;SDS011;3416;53.074;8.822;2022-12-18T11:39:12;12.50;;;9.35;;
6757;SDS011;3416;53.074;8.822;2022-12-18T11:41:45;16.08;;;10.27;;
6757;SDS011;3416;53.074;8.822;2022-12-18T11:44:35;14.57;;;9.60;;
6757;SDS011;3416;53.074;8.822;2022-12-18T11:47:09;17.52;;;11.18;;
6757;SDS011;3416;53.074;8.822;2022-12-18T11:49:41;12.93;;;9.00;;
6757;SDS011;3416;53.074;8.822;2022-12-18T11:52:09;18.48;;;10.23;;
6757;SDS011;3416;53.074;8.822;2022-12-18T11:54:43;12.70;;;10.35;;
6757;SDS011;3416;53.074;8.822;2022-12-18T11:57:11;11.05;;;9.80;;
6757;SDS011;3416;53.074;8.822;2022-12-18T11:59:48;17.05;;;9.65;;
6757;SDS011;3416;53.074;8.822;2022-12-18T12:02:28;17.67;;;10.38;;
6757;SDS011;3416;53.074;8.822;2022-12-18T12:05:16;13.68;;;8.98;;
6757;SDS011;3416;53.074;8.822;2022-12-18T12:07:52;15.82;;;10.02;;
6757;SDS011;3416;53.074;8.822;2022-12-18T12:10:27;12.20;;;9.43;;
6757;SDS011;3416;53.074;8.822;2022-12-18T12:13:08;10.98;;;9.20;;
6757;SDS011;3416;53.074;8.822;2022-12-18T12:15:49;15.35;;;9.98;;
6757;SDS011;3416;53.074;8.822;2022-12-18T12:18:30;11.57;;;9.57;;
6757;SDS011;3416;53.074;8.822;2022-12-18T12:21:09;16.67;;;9.70;;
6757;SDS011;3416;53.074;8.822;2022-12-18T12:23:45;14.10;;;10.05;;
6757;SDS011;3416;53.074;8.822;2022-12-18T12:26:21;13.00;;;9.52;;
6757;SDS011;3416;53.074;8.822;2022-12-18T12:29:01;14.88;;;9.70;;
6757;SDS011;3416;53.074;8.822;2022-12-18T12:31:40;13.38;;;10.30;;
6757;SDS011;3416;53.074;8.822;2022-12-18T12:34:20;16.05;;;10.20;;
6757;SDS011;3416;53.074;8.822;2022-12-18T12:36:55;12.25;;;9.88;;
6757;SDS011;3416;53.074;8.822;2022-12-18T12:39:35;14.35;;;10.70;;
6757;SDS011;3416;53.074;8.822;2022-12-18T12:42:04;11.80;;;9.60;;
6757;SDS011;3416;53.074;8.822;2022-12-18T12:44:55;12.65;;;10.90;;
6757;SDS011;3416;53.074;8.822;2022-12-18T12:47:28;17.73;;;11.55;;
6757;SDS011;3416;53.074;8.822;2022-12-18T12:50:03;14.63;;;9.95;;
6757;SDS011;3416;53.074;8.822;2022-12-18T12:52:39;13.70;;;10.43;;
6757;SDS011;3416;53.074;8.822;2022-12-18T12:55:12;16.15;;;10.40;;
6757;SDS011;3416;53.074;8.822;2022-12-18T12:57:43;17.67;;;11.43;;
6757;SDS011;3416;53.074;8.822;2022-12-18T13:00:15;16.02;;;11.43;;
6757;SDS011;3416;53.074;8.822;2022-12-18T13:02:45;14.85;;;10.85;;
6757;SDS011;3416;53.074;8.822;2022-12-18T13:05:19;13.07;;;8.93;;
6757;SDS011;3416;53.074;8.822;2022-12-18T13:07:51;14.18;;;10.25;;
6757;SDS011;3416;53.074;8.822;2022-12-18T13:10:25;15.38;;;10.70;;
6757;SDS011;3416;53.074;8.822;2022-12-18T13:12:58;13.80;;;10.05;;
6757;SDS011;3416;53.074;8.822;2022-12-18T13:15:29;17.23;;;11.30;;
6757;SDS011;3416;53.074;8.822;2022-12-18T13:18:03;18.23;;;10.35;;
6757;SDS011;3416;53.074;8.822;2022-12-18T13:20:42;17.25;;;11.48;;
6757;SDS011;3416;53.074;8.822;2022-12-18T13:28:57;13.35;;;10.85;;
6757;SDS011;3416;53.074;8.822;2022-12-18T13:34:33;16.70;;;10.23;;
6757;SDS011;3416;53.074;8.822;2022-12-18T13:43:24;17.55;;;9.45;;
6757;SDS011;3416;53.074;8.822;2022-12-18T13:48:55;18.92;;;11.63;;
6757;SDS011;3416;53.074;8.822;2022-12-18T13:51:25;15.15;;;11.63;;
6757;SDS011;3416;53.074;8.822;2022-12-18T13:53:54;16.00;;;10.80;;
6757;SDS011;3416;53.074;8.822;2022-12-18T13:56:26;20.23;;;10.73;;
6757;SDS011;3416;53.074;8.822;2022-12-18T13:59:08;15.38;;;10.35;;
6757;SDS011;3416;53.074;8.822;2022-12-18T14:01:43;16.13;;;10.25;;
6757;SDS011;3416;53.074;8.822;2022-12-18T14:04:12;17.35;;;10.82;;
6757;SDS011;3416;53.074;8.822;2022-12-18T14:06:46;16.92;;;11.00;;
6757;SDS011;3416;53.074;8.822;2022-12-18T14:09:14;15.00;;;10.32;;
6757;SDS011;3416;53.074;8.822;2022-12-18T14:11:46;14.13;;;10.35;;
6757;SDS011;3416;53.074;8.822;2022-12-18T14:14:15;14.07;;;10.20;;
6757;SDS011;3416;53.074;8.822;2022-12-18T14:16:43;17.45;;;12.35;;
6757;SDS011;3416;53.074;8.822;2022-12-18T14:19:13;11.25;;;9.75;;
6757;SDS011;3416;53.074;8.822;2022-12-18T14:21:45;17.25;;;12.48;;
6757;SDS011;3416;53.074;8.822;2022-12-18T14:24:13;29.42;;;18.98;;
6757;SDS011;3416;53.074;8.822;2022-12-18T14:26:41;19.25;;;16.92;;
6757;SDS011;3416;53.074;8.822;2022-12-18T14:29:24;13.50;;;9.95;;
6757;SDS011;3416;53.074;8.822;2022-12-18T14:32:05;17.15;;;9.77;;
6757;SDS011;3416;53.074;8.822;2022-12-18T14:34:35;13.98;;;9.70;;
6757;SDS011;3416;53.074;8.822;2022-12-18T14:37:02;17.35;;;10.63;;
6757;SDS011;3416;53.074;8.822;2022-12-18T14:39:30;12.00;;;9.80;;
6757;SDS011;3416;53.074;8.822;2022-12-18T14:41:57;14.50;;;11.27;;
6757;SDS011;3416;53.074;8.822;2022-12-18T14:44:25;17.00;;;11.77;;
6757;SDS011;3416;53.074;8.822;2022-12-18T14:46:52;14.50;;;10.65;;
6757;SDS011;3416;53.074;8.822;2022-12-18T14:49:21;22.38;;;15.70;;
6757;SDS011;3416;53.074;8.822;2022-12-18T14:51:51;23.52;;;12.65;;
6757;SDS011;3416;53.074;8.822;2022-12-18T14:54:20;14.80;;;10.20;;
6757;SDS011;3416;53.074;8.822;2022-12-18T14:56:48;20.88;;;10.15;;
6757;SDS011;3416;53.074;8.822;2022-12-18T14:59:18;24.05;;;14.77;;
6757;SDS011;3416;53.074;8.822;2022-12-18T15:01:50;26.35;;;15.45;;
6757;SDS011;3416;53.074;8.822;2022-12-18T15:04:25;15.20;;;11.27;;
6757;SDS011;3416;53.074;8.822;2022-12-18T15:07:11;20.10;;;14.45;;
6757;SDS011;3416;53.074;8.822;2022-12-18T15:09:40;19.83;;;10.88;;
6757;SDS011;3416;53.074;8.822;2022-12-18T15:12:28;13.55;;;10.07;;
6757;SDS011;3416;53.074;8.822;2022-12-18T15:15:01;10.35;;;8.20;;
6757;SDS011;3416;53.074;8.822;2022-12-18T15:17:29;16.10;;;8.75;;
6757;SDS011;3416;53.074;8.822;2022-12-18T15:19:58;16.60;;;11.10;;
6757;SDS011;3416;53.074;8.822;2022-12-18T15:22:28;16.15;;;10.65;;
6757;SDS011;3416;53.074;8.822;2022-12-18T15:24:58;16.55;;;12.10;;
6757;SDS011;3416;53.074;8.822;2022-12-18T15:27:27;12.30;;;10.30;;
6757;SDS011;3416;53.074;8.822;2022-12-18T15:32:47;16.77;;;10.95;;
6757;SDS011;3416;53.074;8.822;2022-12-18T15:35:16;14.27;;;10.05;;
6757;SDS011;3416;53.074;8.822;2022-12-18T15:37:44;15.02;;;9.70;;
6757;SDS011;3416;53.074;8.822;2022-12-18T15:40:12;20.25;;;10.85;;
6757;SDS011;3416;53.074;8.822;2022-12-18T15:42:39;19.88;;;13.02;;